Time;durP1;ratioP1;P1;durP2;ratioP2;P2;SDS_P1;SDS_P2;PMS_P1;PMS_P2;Temp;Humidity;BMP_temperature;BMP_pressure;BME280_temperature;BME280_humidity;BME280_pressure;Samples;Min_cycle;Max_cycle;Signal;HPM_P1;HPM_P2
2024/01/01 00:01:40;;;;;;;82.93;40.37;;;;;;;;;;5033926;28;20040;-75
2024/01/01 00:04:06;;;;;;;75.20;34.97;;;;;;;;;;5051938;28;20021;-73
2024/01/01 00:06:33;;;;;;;73.40;36.80;;;;;;;;;;5050260;28;20029;-74
2024/01/01 00:08:59;;;;;;;80.50;35.93;;;;;;;;;;5038715;28;20046;-72
2024/01/01 00:11:24;;;;;;;75.13;36.00;;;;;;;;;;5069889;28;20356;-75
2024/01/01 00:13:50;;;;;;;69.50;35.50;;;;;;;;;;5070196;28;20028;-72
2024/01/01 00:16:15;;;;;;;72.30;34.53;;;;;;;;;;5071418;28;20274;-74
2024/01/01 00:18:41;;;;;;;72.63;34.63;;;;;;;;;;5071213;28;20032;-74
2024/01/01 00:21:08;;;;;;;78.13;36.13;;;;;;;;;;5071293;28;20364;-74
2024/01/01 00:23:33;;;;;;;71.73;35.00;;;;;;;;;;5069835;28;20028;-74
2024/01/01 00:25:59;;;;;;;72.17;34.33;;;;;;;;;;5054894;28;20033;-72
2024/01/01 00:28:25;;;;;;;76.50;35.17;;;;;;;;;;5051624;28;20041;-74
2024/01/01 00:30:50;;;;;;;75.90;38.53;;;;;;;;;;5051238;28;20040;-74
2024/01/01 00:33:18;;;;;;;75.27;35.90;;;;;;;;;;5050155;28;20345;-72
2024/01/01 00:35:44;;;;;;;83.80;38.43;;;;;;;;;;5051496;28;20090;-72
2024/01/01 00:38:10;;;;;;;84.27;40.17;;;;;;;;;;5049808;28;20112;-73
2024/01/01 00:40:37;;;;;;;69.97;38.10;;;;;;;;;;5049603;28;20273;-73
2024/01/01 00:43:03;;;;;;;79.70;38.03;;;;;;;;;;5050929;28;20029;-72
2024/01/01 00:45:31;;;;;;;80.93;39.67;;;;;;;;;;5049422;28;20024;-72
2024/01/01 00:47:56;;;;;;;72.03;35.40;;;;;;;;;;5050453;28;20025;-71
2024/01/01 00:50:22;;;;;;;68.13;34.33;;;;;;;;;;5050479;28;20021;-73
2024/01/01 00:52:48;;;;;;;70.73;34.70;;;;;;;;;;5051117;28;20102;-71
2024/01/01 00:55:14;;;;;;;68.20;32.57;;;;;;;;;;5051817;28;20119;-73
2024/01/01 00:57:39;;;;;;;65.10;31.23;;;;;;;;;;5049826;28;20020;-74
2024/01/01 01:00:06;;;;;;;71.47;33.47;;;;;;;;;;5049462;28;20024;-73
2024/01/01 01:02:31;;;;;;;56.13;29.63;;;;;;;;;;5048997;28;20032;-71
2024/01/01 01:04:57;;;;;;;53.40;26.60;;;;;;;;;;5051047;28;20036;-74
2024/01/01 01:07:23;;;;;;;41.27;21.73;;;;;;;;;;5049629;28;20052;-73
2024/01/01 01:09:49;;;;;;;47.50;22.27;;;;;;;;;;5049890;28;20433;-71
2024/01/01 01:12:16;;;;;;;47.50;22.73;;;;;;;;;;5054862;28;20404;-73
2024/01/01 01:14:43;;;;;;;53.20;21.77;;;;;;;;;;5068513;28;20040;-72
2024/01/01 01:17:10;;;;;;;45.90;22.03;;;;;;;;;;5070695;28;20099;-74
2024/01/01 01:19:36;;;;;;;53.93;21.17;;;;;;;;;;5069208;28;20123;-73
2024/01/01 01:22:02;;;;;;;49.37;23.27;;;;;;;;;;5069434;28;20163;-72
2024/01/01 01:24:29;;;;;;;45.00;21.80;;;;;;;;;;5069536;28;20024;-77
2024/01/01 01:26:57;;;;;;;49.67;22.43;;;;;;;;;;5071449;28;20055;-74
2024/01/01 01:29:24;;;;;;;38.90;21.07;;;;;;;;;;5071446;28;20036;-75
2024/01/01 01:31:50;;;;;;;43.23;18.90;;;;;;;;;;5071267;28;20088;-74
2024/01/01 01:34:16;;;;;;;37.03;19.03;;;;;;;;;;5074806;28;20503;-71
2024/01/01 01:36:41;;;;;;;43.30;19.70;;;;;;;;;;5074725;28;20032;-74
2024/01/01 01:39:09;;;;;;;55.17;24.93;;;;;;;;;;5072723;28;20032;-72
2024/01/01 01:41:37;;;;;;;36.60;17.77;;;;;;;;;;5073118;28;20028;-74
2024/01/01 01:44:03;;;;;;;41.03;19.27;;;;;;;;;;5074241;28;20115;-75
2024/01/01 01:46:29;;;;;;;40.67;17.40;;;;;;;;;;5057324;28;20029;-73
2024/01/01 01:48:55;;;;;;;31.83;15.83;;;;;;;;;;5073585;28;20032;-73
2024/01/01 01:51:20;;;;;;;33.33;14.93;;;;;;;;;;5073706;28;20523;-73
2024/01/01 01:53:48;;;;;;;32.07;14.93;;;;;;;;;;5072906;28;20476;-74
2024/01/01 01:56:14;;;;;;;37.37;17.50;;;;;;;;;;5072685;28;20047;-71
2024/01/01 01:58:40;;;;;;;35.23;14.73;;;;;;;;;;5073593;28;20028;-74
2024/01/01 02:01:07;;;;;;;38.10;17.20;;;;;;;;;;5053226;28;20037;-72
2024/01/01 02:03:33;;;;;;;30.63;14.13;;;;;;;;;;5053855;28;20029;-73
2024/01/01 02:05:59;;;;;;;30.70;14.93;;;;;;;;;;5054126;28;20025;-74
2024/01/01 02:08:25;;;;;;;31.00;14.73;;;;;;;;;;5052753;28;20028;-76
2024/01/01 02:10:50;;;;;;;33.63;14.23;;;;;;;;;;5053881;28;20094;-74
2024/01/01 02:13:34;;;;;;;31.90;14.60;;;;;;;;;;5052380;28;20492;-73
2024/01/01 02:16:00;;;;;;;30.93;15.57;;;;;;;;;;5067843;28;20043;-74
2024/01/01 02:18:26;;;;;;;38.90;16.87;;;;;;;;;;5063681;28;20029;-74
2024/01/01 02:20:56;;;;;;;30.53;15.67;;;;;;;;;;5065867;28;20043;-75
2024/01/01 02:23:21;;;;;;;33.37;17.00;;;;;;;;;;5074187;28;20047;-74
2024/01/01 02:25:48;;;;;;;32.13;15.63;;;;;;;;;;5072925;28;20144;-72
2024/01/01 02:28:14;;;;;;;31.50;14.90;;;;;;;;;;5076386;28;20029;-74
2024/01/01 02:30:40;;;;;;;32.13;15.50;;;;;;;;;;5072758;28;20066;-75
2024/01/01 02:33:08;;;;;;;30.77;15.33;;;;;;;;;;5055139;28;20025;-74
2024/01/01 02:35:35;;;;;;;31.80;14.40;;;;;;;;;;5053957;28;20035;-75
2024/01/01 02:38:01;;;;;;;32.83;14.33;;;;;;;;;;5052439;28;20627;-74
2024/01/01 02:40:27;;;;;;;30.07;12.97;;;;;;;;;;5052426;28;20044;-73
2024/01/01 02:42:54;;;;;;;30.03;13.03;;;;;;;;;;5053250;28;20017;-73
2024/01/01 02:45:22;;;;;;;27.07;12.97;;;;;;;;;;5052411;28;20575;-75
2024/01/01 02:47:49;;;;;;;22.37;11.50;;;;;;;;;;5068434;28;20092;-75
2024/01/01 02:50:15;;;;;;;22.43;11.00;;;;;;;;;;5071546;28;20032;-75
2024/01/01 02:52:41;;;;;;;20.87;10.40;;;;;;;;;;5070287;28;20457;-74
2024/01/01 02:55:10;;;;;;;23.20;11.10;;;;;;;;;;5073185;28;20082;-71
2024/01/01 02:57:38;;;;;;;24.67;11.63;;;;;;;;;;5071074;28;20369;-73
2024/01/01 03:00:08;;;;;;;27.50;12.53;;;;;;;;;;5072985;28;20465;-72
2024/01/01 03:02:34;;;;;;;23.27;12.73;;;;;;;;;;5071997;28;20070;-73
2024/01/01 03:05:00;;;;;;;24.77;11.80;;;;;;;;;;5071281;28;20040;-72
2024/01/01 03:07:26;;;;;;;23.47;10.20;;;;;;;;;;5071318;28;20032;-73
2024/01/01 03:09:52;;;;;;;23.50;11.53;;;;;;;;;;5071111;28;20109;-72
2024/01/01 03:12:18;;;;;;;23.57;11.27;;;;;;;;;;5070445;28;20609;-72
2024/01/01 03:14:44;;;;;;;23.93;11.07;;;;;;;;;;5071476;28;20036;-73
2024/01/01 03:17:11;;;;;;;20.93;10.50;;;;;;;;;;5071774;28;20107;-73
2024/01/01 03:19:38;;;;;;;16.73;9.70;;;;;;;;;;5071437;28;20271;-73
2024/01/01 03:22:04;;;;;;;22.23;9.63;;;;;;;;;;5071354;28;20568;-75
2024/01/01 03:24:29;;;;;;;20.87;10.60;;;;;;;;;;5071019;28;20456;-75
2024/01/01 03:26:55;;;;;;;22.23;10.13;;;;;;;;;;5063270;28;20029;-75
2024/01/01 03:29:21;;;;;;;18.63;9.93;;;;;;;;;;5051265;28;20287;-73
2024/01/01 03:31:48;;;;;;;16.87;8.47;;;;;;;;;;5051257;28;20033;-73
2024/01/01 03:34:14;;;;;;;19.73;10.30;;;;;;;;;;5051090;28;20051;-73
2024/01/01 03:36:39;;;;;;;22.80;11.83;;;;;;;;;;5051243;28;20057;-73
2024/01/01 03:39:05;;;;;;;25.47;12.03;;;;;;;;;;5052889;28;20039;-73
2024/01/01 03:41:30;;;;;;;21.47;10.00;;;;;;;;;;5053191;28;20020;-72
2024/01/01 03:43:59;;;;;;;21.23;10.20;;;;;;;;;;5069168;28;20028;-72
2024/01/01 03:46:24;;;;;;;19.97;10.50;;;;;;;;;;5071059;28;20633;-73
2024/01/01 03:48:50;;;;;;;19.03;8.93;;;;;;;;;;5071050;28;20027;-74
2024/01/01 03:51:18;;;;;;;20.67;9.53;;;;;;;;;;5072510;28;20028;-73
2024/01/01 03:53:44;;;;;;;21.63;9.93;;;;;;;;;;5070926;28;20082;-73
2024/01/01 03:56:10;;;;;;;19.47;9.47;;;;;;;;;;5070554;28;20532;-72
2024/01/01 03:58:36;;;;;;;17.13;9.17;;;;;;;;;;5060797;28;20024;-72
2024/01/01 04:01:02;;;;;;;17.70;9.20;;;;;;;;;;5051062;28;20108;-74
2024/01/01 04:03:28;;;;;;;20.23;9.50;;;;;;;;;;5051551;28;20021;-71
2024/01/01 04:05:54;;;;;;;19.40;9.57;;;;;;;;;;5050025;28;20029;-71
2024/01/01 04:08:19;;;;;;;17.17;9.00;;;;;;;;;;5050917;28;20132;-69
2024/01/01 04:10:46;;;;;;;15.03;8.37;;;;;;;;;;5050138;28;20099;-72
2024/01/01 04:13:11;;;;;;;18.40;9.30;;;;;;;;;;5049506;28;20029;-68
2024/01/01 04:15:37;;;;;;;16.43;7.93;;;;;;;;;;5048952;28;20446;-69
2024/01/01 04:18:03;;;;;;;19.97;9.03;;;;;;;;;;5050899;28;20027;-71
2024/01/01 04:20:29;;;;;;;21.07;8.80;;;;;;;;;;5049334;28;20025;-69
2024/01/01 04:22:55;;;;;;;16.17;7.63;;;;;;;;;;5049126;28;20021;-68
2024/01/01 04:25:20;;;;;;;14.13;6.87;;;;;;;;;;5049162;28;20036;-68
2024/01/01 04:27:46;;;;;;;10.57;6.17;;;;;;;;;;5049016;28;20017;-69
2024/01/01 04:30:13;;;;;;;14.30;7.00;;;;;;;;;;5050505;28;20090;-69
2024/01/01 04:32:39;;;;;;;13.13;6.40;;;;;;;;;;5050355;28;20104;-69
2024/01/01 04:35:05;;;;;;;11.90;5.90;;;;;;;;;;5050719;28;20444;-71
2024/01/01 04:37:31;;;;;;;16.17;6.93;;;;;;;;;;5050304;28;20025;-69
2024/01/01 04:39:56;;;;;;;11.13;5.33;;;;;;;;;;5048515;28;20461;-68
2024/01/01 04:42:22;;;;;;;12.27;6.13;;;;;;;;;;5048990;28;20032;-69
2024/01/01 04:44:48;;;;;;;11.37;5.63;;;;;;;;;;5052202;28;20123;-69
2024/01/01 04:47:14;;;;;;;11.40;4.80;;;;;;;;;;5068664;28;20568;-69
2024/01/01 04:49:41;;;;;;;12.13;6.20;;;;;;;;;;5068550;28;20035;-69
2024/01/01 04:52:07;;;;;;;11.30;5.87;;;;;;;;;;5068447;28;20125;-68
2024/01/01 04:54:32;;;;;;;14.00;5.97;;;;;;;;;;5070031;28;20120;-70
2024/01/01 04:56:58;;;;;;;11.23;5.90;;;;;;;;;;5068596;28;20055;-68
2024/01/01 04:59:25;;;;;;;13.50;6.17;;;;;;;;;;5070152;28;20039;-76
2024/01/01 05:01:51;;;;;;;11.57;5.57;;;;;;;;;;5069491;28;20029;-73
2024/01/01 05:04:16;;;;;;;11.83;6.10;;;;;;;;;;5071735;28;20503;-73
2024/01/01 05:06:42;;;;;;;12.83;6.00;;;;;;;;;;5071730;28;20060;-73
2024/01/01 05:09:08;;;;;;;12.33;6.03;;;;;;;;;;5069827;28;20027;-73
2024/01/01 05:11:36;;;;;;;12.00;5.20;;;;;;;;;;5069750;28;20049;-73
2024/01/01 05:14:01;;;;;;;9.90;5.07;;;;;;;;;;5071847;28;20473;-76
2024/01/01 05:16:27;;;;;;;9.83;4.93;;;;;;;;;;5065303;28;20128;-73
2024/01/01 05:18:52;;;;;;;8.37;4.53;;;;;;;;;;5051324;28;20024;-73
2024/01/01 05:21:19;;;;;;;14.53;5.70;;;;;;;;;;5050153;28;20123;-73
2024/01/01 05:23:45;;;;;;;9.07;4.93;;;;;;;;;;5051751;28;20457;-72
2024/01/01 05:26:11;;;;;;;9.40;4.60;;;;;;;;;;5050093;28;20040;-74
2024/01/01 05:28:38;;;;;;;12.30;4.70;;;;;;;;;;5050119;28;20033;-75
2024/01/01 05:31:04;;;;;;;11.07;5.13;;;;;;;;;;5049926;28;20032;-74
2024/01/01 05:33:29;;;;;;;11.73;5.27;;;;;;;;;;5063089;28;20111;-74
2024/01/01 05:35:55;;;;;;;11.33;4.90;;;;;;;;;;5070190;28;20062;-74
2024/01/01 05:38:21;;;;;;;12.57;6.13;;;;;;;;;;5069892;28;20602;-74
2024/01/01 05:40:47;;;;;;;11.17;5.30;;;;;;;;;;5069711;28;20089;-73
2024/01/01 05:43:15;;;;;;;15.63;5.33;;;;;;;;;;5070663;28;20568;-75
2024/01/01 05:45:41;;;;;;;13.77;6.70;;;;;;;;;;5073683;28;20021;-74
2024/01/01 05:48:08;;;;;;;14.83;5.67;;;;;;;;;;5072041;28;20299;-72
2024/01/01 05:50:34;;;;;;;9.27;5.20;;;;;;;;;;5061068;28;20054;-72
2024/01/01 05:53:00;;;;;;;14.17;6.37;;;;;;;;;;5053131;28;20025;-75
2024/01/01 05:55:25;;;;;;;14.53;6.23;;;;;;;;;;5049337;28;20040;-73
2024/01/01 05:57:51;;;;;;;13.90;6.13;;;;;;;;;;5049509;28;20388;-75
2024/01/01 06:00:19;;;;;;;13.70;6.70;;;;;;;;;;5049127;28;20404;-74
2024/01/01 06:02:44;;;;;;;12.67;6.43;;;;;;;;;;5050270;28;20469;-75
2024/01/01 06:05:10;;;;;;;11.30;5.63;;;;;;;;;;5068875;28;20024;-74
2024/01/01 06:07:36;;;;;;;13.47;5.67;;;;;;;;;;5069805;28;20052;-74
2024/01/01 06:10:03;;;;;;;14.47;5.53;;;;;;;;;;5070776;28;20351;-73
2024/01/01 06:12:29;;;;;;;14.97;6.10;;;;;;;;;;5052913;28;20049;-74
2024/01/01 06:14:54;;;;;;;12.20;6.50;;;;;;;;;;5068902;28;20648;-72
2024/01/01 06:17:20;;;;;;;11.03;5.27;;;;;;;;;;5070489;28;20027;-75
2024/01/01 06:19:48;;;;;;;11.00;5.83;;;;;;;;;;5059054;28;20508;-75
2024/01/01 06:22:14;;;;;;;13.00;5.73;;;;;;;;;;5048986;28;20060;-72
2024/01/01 06:24:40;;;;;;;12.20;5.13;;;;;;;;;;5050477;28;20508;-75
2024/01/01 06:27:05;;;;;;;12.43;5.57;;;;;;;;;;5052460;28;20060;-73
2024/01/01 06:29:31;;;;;;;10.60;4.83;;;;;;;;;;5053069;28;20040;-76
2024/01/01 06:31:57;;;;;;;10.07;5.57;;;;;;;;;;5053500;28;20040;-72
2024/01/01 06:34:23;;;;;;;11.30;5.33;;;;;;;;;;5054228;28;20068;-74
2024/01/01 06:36:49;;;;;;;10.83;5.30;;;;;;;;;;5071112;28;20384;-75
2024/01/01 06:39:15;;;;;;;14.00;5.63;;;;;;;;;;5074016;28;20029;-74
2024/01/01 06:41:45;;;;;;;11.43;5.00;;;;;;;;;;5073929;28;20099;-74
2024/01/01 06:44:11;;;;;;;10.00;5.43;;;;;;;;;;5074101;28;20501;-74
2024/01/01 06:46:37;;;;;;;11.10;5.67;;;;;;;;;;5074230;28;20081;-74
2024/01/01 06:49:03;;;;;;;13.07;5.40;;;;;;;;;;5074071;28;20529;-75
2024/01/01 06:51:29;;;;;;;15.13;5.57;;;;;;;;;;5062551;28;20029;-73
2024/01/01 06:53:54;;;;;;;9.83;5.57;;;;;;;;;;5052130;28;20044;-73
2024/01/01 06:56:20;;;;;;;8.77;4.50;;;;;;;;;;5052971;28;20385;-73
2024/01/01 06:58:47;;;;;;;11.73;5.13;;;;;;;;;;5035467;28;20032;-74
2024/01/01 07:01:17;;;;;;;8.70;4.60;;;;;;;;;;5054166;28;20052;-75
2024/01/01 07:03:43;;;;;;;13.87;5.10;;;;;;;;;;5034521;28;20389;-73
2024/01/01 07:06:09;;;;;;;8.97;4.70;;;;;;;;;;5062553;28;20111;-74
2024/01/01 07:08:35;;;;;;;8.00;3.70;;;;;;;;;;5072451;28;20051;-73
2024/01/01 07:11:01;;;;;;;12.63;6.17;;;;;;;;;;5073865;28;20028;-72
2024/01/01 07:13:27;;;;;;;8.70;5.07;;;;;;;;;;5074024;28;20032;-74
2024/01/01 07:15:54;;;;;;;8.60;4.23;;;;;;;;;;5074318;28;20150;-75
2024/01/01 07:18:20;;;;;;;8.00;4.43;;;;;;;;;;5074028;28;20048;-73
2024/01/01 07:20:45;;;;;;;10.60;4.37;;;;;;;;;;5054764;28;20068;-73
2024/01/01 07:23:11;;;;;;;10.50;5.10;;;;;;;;;;5053688;28;20540;-73
2024/01/01 07:25:37;;;;;;;8.93;4.57;;;;;;;;;;5052248;28;20032;-73
2024/01/01 07:28:03;;;;;;;9.50;4.93;;;;;;;;;;5051570;28;20092;-74
2024/01/01 07:30:29;;;;;;;11.53;4.93;;;;;;;;;;5053498;28;20025;-73
2024/01/01 07:32:55;;;;;;;8.67;4.07;;;;;;;;;;5053825;28;20025;-74
2024/01/01 07:35:21;;;;;;;11.97;3.60;;;;;;;;;;5059836;28;20042;-72
2024/01/01 07:37:47;;;;;;;8.47;4.60;;;;;;;;;;5064226;28;20163;-73
2024/01/01 07:40:12;;;;;;;9.90;4.43;;;;;;;;;;5054281;28;20063;-74
2024/01/01 07:42:39;;;;;;;9.27;4.70;;;;;;;;;;5052002;28;20102;-75
2024/01/01 07:45:05;;;;;;;12.83;5.00;;;;;;;;;;5053025;28;20031;-73
2024/01/01 07:47:31;;;;;;;12.40;4.83;;;;;;;;;;5052241;28;20021;-73
2024/01/01 07:50:00;;;;;;;12.30;5.70;;;;;;;;;;5054021;28;20044;-74
2024/01/01 07:52:26;;;;;;;11.03;4.87;;;;;;;;;;5068697;28;20048;-74
2024/01/01 07:54:57;;;;;;;13.73;4.30;;;;;;;;;;5071957;28;20040;-72
2024/01/01 07:57:24;;;;;;;9.50;4.80;;;;;;;;;;5073456;28;20374;-73
2024/01/01 07:59:51;;;;;;;9.60;4.73;;;;;;;;;;5072209;28;20547;-72
2024/01/01 08:02:18;;;;;;;7.17;3.63;;;;;;;;;;5073777;28;20035;-74
2024/01/01 08:04:44;;;;;;;11.10;4.67;;;;;;;;;;5071923;28;20020;-70
2024/01/01 08:07:11;;;;;;;10.20;4.30;;;;;;;;;;5071152;28;20040;-74
2024/01/01 08:09:36;;;;;;;8.13;4.53;;;;;;;;;;5072145;28;20075;-74
2024/01/01 08:12:05;;;;;;;13.43;4.73;;;;;;;;;;5071884;28;20075;-74
2024/01/01 08:14:31;;;;;;;10.27;4.50;;;;;;;;;;5072522;28;20036;-72
2024/01/01 08:16:57;;;;;;;9.87;5.90;;;;;;;;;;5073782;28;20036;-72
2024/01/01 08:19:22;;;;;;;8.10;3.87;;;;;;;;;;5072406;28;20239;-73
2024/01/01 08:21:48;;;;;;;7.87;4.03;;;;;;;;;;5073240;28;20198;-74
2024/01/01 08:24:14;;;;;;;8.67;3.57;;;;;;;;;;5052652;28;20025;-74
2024/01/01 08:26:40;;;;;;;8.80;4.50;;;;;;;;;;5051188;28;20489;-72
2024/01/01 08:29:05;;;;;;;12.63;4.87;;;;;;;;;;5051615;28;20039;-72
2024/01/01 08:31:31;;;;;;;11.20;4.67;;;;;;;;;;5051246;28;20039;-72
2024/01/01 08:33:57;;;;;;;12.07;4.67;;;;;;;;;;5052303;28;20033;-72
2024/01/01 08:36:23;;;;;;;10.97;5.07;;;;;;;;;;5051101;28;20028;-72
2024/01/01 08:38:49;;;;;;;13.13;4.17;;;;;;;;;;5060347;28;20027;-73
2024/01/01 08:41:14;;;;;;;7.97;4.27;;;;;;;;;;5072826;28;20468;-73
2024/01/01 08:43:40;;;;;;;8.63;4.40;;;;;;;;;;5072589;28;20056;-72
2024/01/01 08:46:08;;;;;;;9.80;4.80;;;;;;;;;;5070321;28;20025;-74
2024/01/01 08:48:33;;;;;;;13.63;4.63;;;;;;;;;;5072131;28;20040;-75
2024/01/01 08:50:59;;;;;;;8.40;4.17;;;;;;;;;;5070217;28;20027;-70
2024/01/01 08:53:25;;;;;;;8.73;3.63;;;;;;;;;;5069575;28;20028;-74
2024/01/01 08:55:52;;;;;;;8.47;4.30;;;;;;;;;;5071704;28;20028;-73
2024/01/01 08:58:18;;;;;;;7.90;4.27;;;;;;;;;;5071642;28;20097;-73
2024/01/01 09:00:43;;;;;;;10.30;4.87;;;;;;;;;;5069986;28;20115;-73
2024/01/01 09:03:09;;;;;;;14.77;5.87;;;;;;;;;;5071520;28;20016;-72
2024/01/01 09:05:35;;;;;;;7.97;4.03;;;;;;;;;;5070089;28;20023;-73
2024/01/01 09:08:01;;;;;;;13.20;4.77;;;;;;;;;;5071881;28;20029;-72
2024/01/01 09:10:27;;;;;;;10.57;5.33;;;;;;;;;;5059937;28;20033;-74
2024/01/01 09:12:53;;;;;;;8.93;4.80;;;;;;;;;;5067454;28;20052;-73
2024/01/01 09:15:19;;;;;;;9.17;4.33;;;;;;;;;;5070349;28;20043;-73
2024/01/01 09:17:44;;;;;;;9.77;4.33;;;;;;;;;;5071963;28;20103;-74
2024/01/01 09:20:11;;;;;;;10.27;4.90;;;;;;;;;;5070028;28;20036;-75
2024/01/01 09:22:37;;;;;;;9.43;4.10;;;;;;;;;;5071737;28;20046;-74
2024/01/01 09:25:03;;;;;;;11.10;5.10;;;;;;;;;;5066393;28;20048;-73
2024/01/01 09:27:29;;;;;;;8.13;4.87;;;;;;;;;;5050597;28;20087;-74
2024/01/01 09:29:54;;;;;;;10.87;4.97;;;;;;;;;;5051164;28;20028;-72
2024/01/01 09:32:20;;;;;;;13.33;4.87;;;;;;;;;;5050378;28;20029;-72
2024/01/01 09:34:46;;;;;;;13.93;4.30;;;;;;;;;;5050212;28;20060;-72
2024/01/01 09:37:11;;;;;;;10.57;5.00;;;;;;;;;;5051363;28;20036;-73
2024/01/01 09:39:38;;;;;;;7.37;3.60;;;;;;;;;;5051050;28;20426;-74
2024/01/01 09:42:05;;;;;;;10.77;5.20;;;;;;;;;;5064653;28;20032;-72
2024/01/01 09:44:30;;;;;;;10.23;5.10;;;;;;;;;;5069626;28;20024;-73
2024/01/01 09:46:56;;;;;;;8.97;4.90;;;;;;;;;;5069833;28;20032;-72
2024/01/01 09:49:24;;;;;;;7.13;4.07;;;;;;;;;;5071501;28;20024;-75
2024/01/01 09:51:51;;;;;;;10.40;4.80;;;;;;;;;;5069864;28;20050;-74
2024/01/01 09:54:17;;;;;;;7.53;5.07;;;;;;;;;;5069325;28;20055;-73
2024/01/01 09:56:43;;;;;;;11.43;4.60;;;;;;;;;;5061897;28;20388;-72
2024/01/01 09:59:10;;;;;;;14.45;4.45;;;;;;;;;;5052076;28;20073;-74
2024/01/01 10:01:38;;;;;;;9.98;4.57;;;;;;;;;;5053074;28;20051;-72
2024/01/01 10:04:07;;;;;;;12.15;4.47;;;;;;;;;;5061260;28;20013;-73
2024/01/01 10:06:36;;;;;;;12.15;4.40;;;;;;;;;;5060672;28;20048;-72
2024/01/01 10:09:09;;;;;;;10.65;4.95;;;;;;;;;;5054674;28;20035;-72
2024/01/01 10:11:41;;;;;;;9.00;3.97;;;;;;;;;;5054535;28;20080;-72
2024/01/01 10:14:09;;;;;;;9.75;4.03;;;;;;;;;;5073534;28;20040;-74
2024/01/01 10:16:38;;;;;;;9.52;4.15;;;;;;;;;;5076259;28;20062;-74
2024/01/01 10:19:06;;;;;;;10.60;3.85;;;;;;;;;;5075401;28;20020;-73
2024/01/01 10:21:36;;;;;;;8.15;3.58;;;;;;;;;;5073690;28;20051;-73
2024/01/01 10:24:21;;;;;;;11.05;4.03;;;;;;;;;;5075013;28;20081;-74
2024/01/01 10:26:47;;;;;;;10.73;3.50;;;;;;;;;;5075246;28;20034;-74
2024/01/01 10:29:15;;;;;;;8.93;3.83;;;;;;;;;;5060974;28;20036;-72
2024/01/01 10:31:45;;;;;;;10.82;3.85;;;;;;;;;;5055364;28;20028;-72
2024/01/01 10:34:20;;;;;;;4.85;2.83;;;;;;;;;;5053122;28;20025;-73
2024/01/01 10:36:46;;;;;;;7.30;3.25;;;;;;;;;;5053713;28;20033;-73
2024/01/01 10:39:12;;;;;;;7.97;3.50;;;;;;;;;;5054428;28;20032;-75
2024/01/01 10:41:39;;;;;;;8.00;2.78;;;;;;;;;;5053961;28;20033;-73
2024/01/01 10:44:09;;;;;;;6.07;2.88;;;;;;;;;;5053659;28;20163;-72
2024/01/01 10:46:39;;;;;;;8.50;2.88;;;;;;;;;;5054514;28;20096;-74
2024/01/01 10:49:23;;;;;;;8.73;3.22;;;;;;;;;;5055238;28;20021;-71
2024/01/01 10:52:08;;;;;;;6.68;3.47;;;;;;;;;;5055154;28;20104;-75
2024/01/01 10:54:54;;;;;;;4.60;2.22;;;;;;;;;;5053440;28;20036;-74
2024/01/01 10:57:56;;;;;;;6.03;2.42;;;;;;;;;;5052884;28;20033;-73
2024/01/01 11:00:47;;;;;;;7.95;2.80;;;;;;;;;;5060937;28;20028;-74
2024/01/01 11:03:14;;;;;;;5.90;2.75;;;;;;;;;;5074703;28;20020;-73
2024/01/01 11:05:40;;;;;;;7.28;2.65;;;;;;;;;;5073257;28;20027;-74
2024/01/01 11:08:06;;;;;;;6.82;2.17;;;;;;;;;;5073144;28;20052;-72
2024/01/01 11:10:44;;;;;;;3.53;2.40;;;;;;;;;;5074358;28;20044;-73
2024/01/01 11:13:32;;;;;;;4.45;2.33;;;;;;;;;;5073161;28;20040;-73
2024/01/01 11:16:07;;;;;;;4.32;1.65;;;;;;;;;;5072458;28;20040;-74
2024/01/01 11:18:35;;;;;;;8.30;2.97;;;;;;;;;;5070943;28;20067;-72
2024/01/01 11:21:02;;;;;;;8.30;2.35;;;;;;;;;;5073881;28;20169;-73
2024/01/01 11:23:41;;;;;;;6.88;2.15;;;;;;;;;;5073558;28;20082;-75
2024/01/01 11:26:34;;;;;;;8.48;2.55;;;;;;;;;;5073621;28;20369;-73
2024/01/01 11:29:26;;;;;;;4.13;1.73;;;;;;;;;;5072628;28;20036;-73
2024/01/01 11:32:02;;;;;;;7.32;2.13;;;;;;;;;;5063942;28;20116;-74
2024/01/01 11:34:28;;;;;;;8.95;2.55;;;;;;;;;;5051440;28;20037;-73
2024/01/01 11:36:53;;;;;;;5.43;1.95;;;;;;;;;;5051826;28;20025;-72
2024/01/01 11:39:24;;;;;;;5.53;2.53;;;;;;;;;;5052021;28;20020;-73
2024/01/01 11:41:50;;;;;;;7.53;2.15;;;;;;;;;;5053569;28;20676;-73
2024/01/01 11:44:18;;;;;;;6.95;1.98;;;;;;;;;;5056109;28;20035;-72
2024/01/01 11:46:46;;;;;;;6.72;2.53;;;;;;;;;;5053568;28;20060;-73
2024/01/01 11:49:12;;;;;;;10.98;2.85;;;;;;;;;;5051711;28;20028;-74
2024/01/01 11:52:02;;;;;;;3.42;1.67;;;;;;;;;;5052022;28;20140;-73
2024/01/01 11:54:28;;;;;;;8.38;2.35;;;;;;;;;;5052481;28;20485;-74
2024/01/01 11:56:57;;;;;;;9.68;3.60;;;;;;;;;;5051965;28;20086;-73
2024/01/01 11:59:24;;;;;;;6.40;2.77;;;;;;;;;;5069888;28;20032;-75
2024/01/01 12:01:50;;;;;;;4.15;1.70;;;;;;;;;;5073413;28;20028;-75
2024/01/01 12:04:17;;;;;;;4.80;2.25;;;;;;;;;;5071244;28;20032;-73
2024/01/01 12:06:50;;;;;;;3.88;1.95;;;;;;;;;;5071239;28;20098;-73
2024/01/01 12:09:16;;;;;;;4.60;1.77;;;;;;;;;;5072779;28;20029;-74
2024/01/01 12:11:42;;;;;;;3.35;2.08;;;;;;;;;;5072978;28;20048;-74
2024/01/01 12:14:09;;;;;;;5.93;2.67;;;;;;;;;;5071129;28;20037;-73
2024/01/01 12:16:35;;;;;;;5.88;2.00;;;;;;;;;;5072532;28;20032;-72
2024/01/01 12:19:06;;;;;;;7.15;1.77;;;;;;;;;;5071640;28;20074;-73
2024/01/01 12:21:43;;;;;;;3.55;1.20;;;;;;;;;;5073650;28;20040;-74
2024/01/01 12:24:13;;;;;;;4.40;1.73;;;;;;;;;;5072424;28;20331;-74
2024/01/01 12:26:39;;;;;;;5.78;2.20;;;;;;;;;;5072325;28;20158;-74
2024/01/01 12:29:13;;;;;;;8.63;2.15;;;;;;;;;;5067853;28;20488;-72
2024/01/01 12:31:40;;;;;;;3.63;1.73;;;;;;;;;;5051895;28;20047;-75
2024/01/01 12:34:08;;;;;;;5.25;2.08;;;;;;;;;;5052708;28;20052;-73
2024/01/01 12:36:35;;;;;;;4.07;2.28;;;;;;;;;;5054066;28;20016;-71
2024/01/01 12:39:02;;;;;;;5.93;2.33;;;;;;;;;;5054345;28;20036;-75
2024/01/01 12:41:28;;;;;;;8.70;1.80;;;;;;;;;;5054193;28;20028;-75
2024/01/01 12:43:55;;;;;;;9.00;1.92;;;;;;;;;;5053794;28;20019;-73
2024/01/01 12:46:21;;;;;;;8.05;1.80;;;;;;;;;;5070949;28;20024;-74
2024/01/01 12:48:47;;;;;;;4.10;1.52;;;;;;;;;;5076778;28;20473;-72
2024/01/01 12:51:17;;;;;;;3.90;1.60;;;;;;;;;;5074003;28;20039;-73
2024/01/01 12:53:44;;;;;;;8.25;1.95;;;;;;;;;;5072649;28;20036;-73
2024/01/01 12:56:10;;;;;;;1.92;1.33;;;;;;;;;;5072281;28;20204;-74
2024/01/01 12:58:40;;;;;;;5.53;1.48;;;;;;;;;;5070803;28;20028;-73
2024/01/01 13:01:09;;;;;;;4.60;1.85;;;;;;;;;;5065267;28;20029;-72
2024/01/01 13:03:38;;;;;;;8.73;2.20;;;;;;;;;;5051967;28;20029;-74
2024/01/01 13:06:06;;;;;;;4.13;3.20;;;;;;;;;;5052724;28;20082;-74
2024/01/01 13:08:36;;;;;;;6.93;1.75;;;;;;;;;;5051549;28;20031;-74
2024/01/01 13:11:05;;;;;;;6.35;1.60;;;;;;;;;;5051066;28;20377;-74
2024/01/01 13:13:33;;;;;;;4.93;2.08;;;;;;;;;;5051223;28;20096;-72
2024/01/01 13:16:00;;;;;;;5.35;1.42;;;;;;;;;;5050942;28;20051;-72
2024/01/01 13:18:29;;;;;;;5.80;1.98;;;;;;;;;;5050736;28;20037;-73
2024/01/01 13:20:56;;;;;;;9.23;2.03;;;;;;;;;;5050339;28;20031;-75
2024/01/01 13:23:22;;;;;;;3.30;1.65;;;;;;;;;;5050954;28;20046;-73
2024/01/01 13:25:48;;;;;;;5.43;1.42;;;;;;;;;;5050901;28;20507;-75
2024/01/01 13:28:21;;;;;;;4.55;1.55;;;;;;;;;;5051805;28;20100;-74
2024/01/01 13:30:51;;;;;;;3.22;1.55;;;;;;;;;;5035186;28;20090;-72
2024/01/01 13:33:21;;;;;;;3.40;1.92;;;;;;;;;;5064164;28;20036;-74
2024/01/01 13:35:48;;;;;;;4.18;1.42;;;;;;;;;;5066659;28;20115;-73
2024/01/01 13:38:15;;;;;;;6.35;1.80;;;;;;;;;;5071199;28;20164;-74
2024/01/01 13:40:41;;;;;;;3.72;1.40;;;;;;;;;;5073840;28;20028;-75
2024/01/01 13:43:10;;;;;;;10.82;2.67;;;;;;;;;;5072413;28;20020;-75
2024/01/01 13:45:40;;;;;;;6.03;1.77;;;;;;;;;;5072092;28;20048;-75
2024/01/01 13:48:11;;;;;;;4.32;1.50;;;;;;;;;;5069706;28;20047;-74
2024/01/01 13:50:38;;;;;;;5.80;1.70;;;;;;;;;;5069237;28;20080;-74
2024/01/01 13:53:04;;;;;;;8.85;1.77;;;;;;;;;;5071709;28;20025;-72
2024/01/01 13:55:31;;;;;;;4.72;1.50;;;;;;;;;;5071427;28;20032;-74
2024/01/01 13:57:59;;;;;;;2.75;1.52;;;;;;;;;;5073571;28;20449;-73
2024/01/01 14:00:27;;;;;;;6.03;1.60;;;;;;;;;;5055566;28;20032;-73
2024/01/01 14:02:54;;;;;;;8.07;1.67;;;;;;;;;;5072763;28;20112;-72
2024/01/01 14:05:20;;;;;;;9.32;1.50;;;;;;;;;;5071921;28;20031;-73
2024/01/01 14:07:50;;;;;;;9.35;1.60;;;;;;;;;;5072614;28;20029;-76
2024/01/01 14:10:20;;;;;;;7.80;2.03;;;;;;;;;;5074142;28;20021;-74
2024/01/01 14:12:50;;;;;;;7.20;1.83;;;;;;;;;;5056524;28;20090;-75
2024/01/01 14:15:24;;;;;;;8.15;1.60;;;;;;;;;;5075173;28;20036;-76
2024/01/01 14:17:58;;;;;;;5.88;2.50;;;;;;;;;;5074322;28;20021;-72
2024/01/01 14:20:26;;;;;;;7.82;1.95;;;;;;;;;;5076687;28;20020;-74
2024/01/01 14:22:58;;;;;;;4.65;1.17;;;;;;;;;;5076278;28;20055;-73
2024/01/01 14:25:24;;;;;;;2.88;1.60;;;;;;;;;;5075635;28;20495;-72
2024/01/01 14:27:51;;;;;;;6.63;1.60;;;;;;;;;;5076762;28;20021;-75
2024/01/01 14:30:19;;;;;;;11.68;1.80;;;;;;;;;;5071421;28;20024;-74
2024/01/01 14:32:45;;;;;;;2.85;1.30;;;;;;;;;;5071567;28;20195;-71